haut de page
  14
CADRANS SOLAIRES
CALVADOS
*
**
Cliquer sur le nom de la commune choisie pour voir les cadrans de cette commune
ou sur les coordonnées géographiques pour situer la commune
On peut aussi faire un copier-coller des coordonnées géographiques directement dans Google Earth.
Ne pas oublier de fermer la nouvelle fenêtre pour revenir à cette page

169 communes trouvées - 373 cadrans solaires répertoriés

CARTE DÉTAILLÉE    *    VUE GLOBALE

Nom commune Code Insee Code Postal Latitude Longitude Lieu repéré Nb cs
1 - Acqueville1400214220 48.971679   -0.367421  C - Eglise   1
2 - Angerville1401214430 49.243102   -0.032719  Eglise   1
3 - Annebault1401614430 49.252524   0.059269  Mairie   2
4 - Auvillars1403314340 49.205339   0.078250  Eglise   2
5 - Basseneville1404514670 49.200236   -0.129805  nd   2
6 - Bayeux1404714400 49.276966   -0.701534  C - Maison du Cadran   1
7 - Bazenville1404914480 49.298870   -0.586291  Eglise   1
8 - Beaulieu1405214350 48.914951   -0.823964  Mairie   1
9 - Beaumont-en-Auge1405514950 49.278595   0.109853  Eglise   2
10 - Bénouville1406014970 49.236108   -0.281148  Château   3
11 - Bény-sur-Mer1406214440 49.291343   -0.432657  Eglise   1
12 - Biéville-Beuville1406814112 49.234443   -0.326156  C - Eglise   2
13 - Beuvron-en-Auge1407014430 49.187982   -0.045977  OT   2
14 - Bissières1407514370 49.113299   -0.092338  Eglise   1
15 - Blonville-sur-Mer1407914910 49.337451   0.029342  nd   8
16 - Bourgeauville1409114430 49.273139   0.054868  Eglise   1
17 - Branville1409314430 49.272980   0.023822  Eglise   3
18 - Bretteville-le-Rabet1409714190 49.025102   -0.259249  Anc presbytère   4
19 - Bretteville-l'Orgueilleuse1409814740 49.210096   -0.510878  C - Maison part.   2
20 - Bretteville-sur-Dives1409914170 49.038136   -0.020083  Mairie   1
21 - Bretteville-sur-Laize1410014680 49.051087   -0.317290  C - Eglise deQuilly   1
22 - Bretteville-sur-Odon1410114760 49.166905   -0.413347  nd   1
23 - Brucourt1411014160 49.250000   -0.100000  nd   4
24 - Cabourg1411714390 49.287953   -0.116354  Mairie   1
25 - Caen1411814000 49.181183   -0.372031  Mairie   24
26 - Cagny1411914630 49.147324   -0.256373  C - Eglise   1
27 - Cambremer1412614340 49.151064   0.048307  OT   6
28 - Campagnolles1412714500 48.889966   -0.924251  Eglise   1
29 - Campeaux1412914350 48.950932   -0.931545  Eglise   1
30 - Carcagny1413514740 49.237063   -0.619915  Eglise   1
31 - Carpiquet1413714650 49.188056   -0.445139  Eglise   1
32 - Carville1413914350 48.929947   -0.858340  Mairie   1
33 - Cauvicourt1414514190 49.045606   -0.265401  Mairie   5
34 - Cernay1414714290 49.020127   0.323804  Eglise   1
35 - Cesny-Bois-Halbout1415014220 48.981048   -0.198539  C - Eglise   2
36 - Clécy1416214570 48.916723   -0.482494  Eglise   1
37 - Cléville1416314370 49.157182   -0.094711  Eglise   1
38 - Colleville-sur-Mer1416514710 49.348405   -0.846685  Mairie   2
39 - Condé-sur-Ifs1417314270 49.047368   -0.122791  Petit Magny   2
40 - Coulombs1418614480 49.252248   -0.561034  C - Eglise   1
41 - Courseulles-sur-Mer1419114470 49.333457   -0.457780  Mairie   1
42 - Courtonne-la-Meurdrac1419314100 49.125390   0.319508  Eglise   5
43 - Crépon1419614480 49.316466   -0.549909  Eglise   1
44 - Creully1420014480 49.286346   -0.539677  Château   2
45 - Cricqueboeuf1420214113 49.402092   0.145663  Eglise   3
46 - Croupte (La)1421014140 49.022332   0.285732  Eglise   1
47 - Danestal1421814430 49.250004   0.020928  Mairie   1
48 - Démouville1422114840 49.177258   -0.266864  C - Eglise   3
49 - Dives-sur-Mer1422514160 49.286843   -0.098883  Village d'Art   7
50 - Douville-en-Auge1422714430 49.260610   -0.023343  Eglise   5
51 - Douvres-la-Délivrande1422814440 49.298569   -0.372569  Eglise   1
52 - Dozulé1422914430 49.232290   -0.040938  Eglise   1
53 - Beaufour-Druval1423114340 49.207616   0.031732  Eglise   7
54 - Escoville1424614850 49.210721   -0.240814  C - 15 rue de Troarn   1
55 - Esquay-sur-Seulles1425014400 49.271956   -0.619041  Eglise   1
56 - Esson1425114220 48.964294   -0.454115  Eglise   1
57 - Etréham1425614400 49.321024   -0.795634  C - Eglise   1
58 - Evrecy1425714210 49.100773   -0.499563  Eglise   1
59 - Falaise1425814700 48.892693   -0.189476  Eglise   4
60 - Feuguerolles-Bully1426614320 49.116248   -0.405278  Eglise   1
61 - Folie (La)1427214710 49.258924   -0.978113  C - Eglise   1
62 - Formentin1428014340 49.210486   0.138599  Eglise   5
63 - Fourches1428314620 48.860394   -0.077740  Eglise   1
64 - Fournet (Le)1428514340 49.203577   0.109954  nd   3
65 - Fresney-le-Puceux1429014680 49.062788   -0.370401  Eglise   5
66 - Fresney-le-Vieux1429114220 49.004577   -0.386026  C - Eglise   1
67 - Gavrus1429714210 49.117890   -0.512982  Eglise   1
68 - Gouvix1430914680 49.034715   -0.304111  Eglise   2
69 - Grangues1431614160 49.266667   -0.050000  nd   5
70 - Hérouville-Saint-Clair1432714200 49.206622   -0.317991  C - Eglise   1
71 - Hérouvillette1432814850 49.220161   -0.242399  Eglise   3
72 - Honfleur1433314600 49.419482   0.233178  Port   2
73 - Hotot-en-Auge1433514430 49.189710   -0.073894  Eglise   2
74 - Hubert-Folie1433914540 49.128341   -0.314371  C - Eglise   1
75 - Ifs1434114123 49.139438   -0.348386  C - Eglise   1
76 - Laize-la-Ville1434914320 49.084116   -0.379613  C - anc presbytère   1
77 - Landelles-et-Coupigny1435214380 48.886673   -0.998476  Eglise   1
78 - Langrune-sur-Mer1435414830 49.320580   -0.374151  Eglise   1
79 - Lantheuil1435514480 49.268077   -0.518093  C - 3 rue Fleurie   3
80 - Léaupartie1435814340 49.184093   0.041281  Eglise   1
81 - Leffard1436014700 48.917201   -0.304776  Eglise   1
82 - Lénault1436114770 48.932089   -0.628660  Eglise   1
83 - Lion-sur-Mer1436514780 49.305930   -0.324472  cadran   1
84 - Lisieux1436614100 49.146734   0.226357  Cathédrale   1
85 - Méry-Corbon1437014410 49.135751   -0.082801  Eglise   11
86 - Magny-en-Bessin1438514400 49.305559   -0.664641  C - maison près Eglise   1
87 - Magny-le-freule1438714270 49.100000   -0.066667  nd   2
88 - Maisoncelles-la-Jourdan1438814500 48.800414   -0.850301  Eglise   1
89 - Maizières1439414190 49.016870   -0.158067  Eglise   2
90 - Manerbe1439814340 49.185334   0.175052  Eglise   2
91 - Marais-la-Chapelle (Le)1440214620 48.881960   -0.025999  Eglise   1
92 - Martigny-sur-l'Ante1440514700 48.884855   -0.285993  Mairie   1
93 - Mathieu1440714920 49.255890   -0.374621  C - rue de l'Accueil   3
94 - Merville-Franceville-Plage1440914810 49.273200   -0.198539  C - Eglise   1
95 - Mesnil-Germain (Le)1442014140 49.042822   0.190353  Mairie   2
96 - Mesnil-Guillaume (Le)1442114100 49.104133   0.289060  Eglise   1
97 - Meuvaines1443014960 49.326720   -0.565595  Eglise   1
98 - Monceaux (Les)1443514100 49.116471   0.124316  nd   6
99 - Monceaux-en-Bessin1443614400 49.264988   -0.695293  manoir de Cremel   1
100 - Montreuil-en-Auge1444814340 49.171665   0.055285  Eglise   2
101 - Moyaux1446014590 49.195069   0.357258  Eglise   1
102 - Mutrécy1446114220 49.063554   -0.420699  C - Eglise   1
103 - Norrey-en-Auge1446914620 48.912895   -0.015608  Eglise   1
104 - Notre-Dame-d'Estrées1447414340 49.142827   0.013211  Eglise   4
105 - Ouilly-le-Tesson1448614190 48.983851   -0.219322  Eglise   1
106 - Ouilly-le-Vicomte1448714100 49.183182   0.224471  Mairie   1
107 - Ouistreham1448814150 49.276629   -0.258560  Mairie   8
108 - Percy-en-Auge1449314270 49.056621   -0.062712  C - Eglise   1
109 - Pertheville-Ners1449814700 48.877745   -0.107058  Eglise   2
110 - Petiville1449914390 49.242226   -0.175500  C - Eglise   2
111 - Pierrefitte-en-Auge1450014130 49.258569   0.200393  Eglise   1
112 - Placy1450514220 48.976423   -0.418967  nd   1
113 - Plumetot1450914440 49.278223   -0.359538  C - rue Bout Bosset   1
114 - Pont-Bellanger1451114380 48.933536   -0.976908  Eglise   1
115 - Pont-l'Evêque1451414130 49.285116   0.182637  Mairie   2
116 - Potigny1451614420 48.969062   -0.241616  nd   4
117 - Putot-en-Auge1452414430 49.216517   -0.069716  Eglise   10
118 - Biéville-Quétiéville1452714270 49.103627   -0.040530  Eglise   3
119 - Reculey (Le)1453214350 48.908661   -0.844405  Eglise   1
120 - Reux1453414130 49.274332   0.151490  Eglise   7
121 - Roque-Baignard (La)1454114340 49.178692   0.099131  Eglise   2
122 - Roullours1454514500 48.832788   -0.837931  Eglise   1
123 - Saint-André-sur-Orne1455614320 49.117175   -0.379326  nd   2
124 - Saint-Aubin-d'Arquenay1455814970 49.262813   -0.290272  Eglise   1
125 - Saint-Aubin-Lébizay1456014340 49.203820   0.005213  Eglise   1
126 - Saint-Charles-de-Percy1456414350 48.924751   -0.788482  Eglise   1
127 - Saint-Contest1456614280 49.214830   -0.402137  Eglise   1
128 - Saint-Denis-Maisoncelles1457314350 48.981362   -0.858141  C - Eglise   1
129 - Saint-Etienne-la-Thillaye1457514950 49.289656   0.120786  Eglise   8
130 - Saint-Gabriel_Brécy1457714480 49.276740   -0.564464  C - Eglise   2
131 - Saint-Germain-de-Tallevende-la-Lande-Vaumont1458414140 48.801009   -0.902197  Eglise   2
132 - Saint-Germain-la-Blanche-Herbe1458714280 49.188298   -0.407156  Eglise   1
133 - Saint-Hymer1459314130 49.253317   0.173539  Eglise   1
134 - Saint-Jouin1459814430 49.209873   -0.014391  Eglise   2
135 - Saint-Lambert1460214570 48.937486   -0.548639  Eglise   2
136 - Saint-Léger-Dubosq1460614430 49.229045   -0.031016  Eglise   3
137 - Saint-Loup-Hors1460914400 49.266083   -0.712399  Eglise   1
138 - Saint-Martin-de-Sallen1462814220 48.966753   -0.522900  Eglise   1
139 - Saint-Pierre-Azif1464514950 49.294944   0.042718  Mairie   9
140 - Saint-Pierre-Canivet1464614700 48.929736   -0.219735  Eglise   5
141 - Saint-Pierre-du-Jonquet1465114670 49.169704   -0.123873  Eglise   1
142 - Saint-Pierre-sur-Dives1465414170 49.020186   -0.032319  Mairie   1
143 - Saint-Rémy1465614570 48.939568   -0.503630  Mairie   2
144 - Saint-Vaast-en-Auge1466114250 49.289729   0.000734  nd   2
145 - Sept-Frères1467114380 48.863424   -1.029827  Eglise   1
146 - Soignolles1467414190 49.029235   -0.212499  Eglise   1
147 - Soumont-Saint-Quentin1467814420 48.978237   -0.233643  Eglise   1
148 - Tessel1468414250 49.153402   -0.574367  nd   1
149 - Thury-Harcourt1468914220 48.985850   -0.476175  Eglise   1
150 - Oudon (L')1469714170 48.976111   0.039979  Eglise   1
151 - Touques1469914800 49.344763   0.103236  Eglise   1
152 - Tourgéville1470114800 49.323365   0.065412  Eglise   1
153 - Tourville-en-Auge1470614130 49.320997   0.206124  Eglise   1
154 - Troarn1471214670 49.182263   -0.182216  OT   2
155 - Trouville-sur-Mer1471514360 49.364985   0.084182  Eglise   1
156 - Urville1471914190 49.025935   -0.297935  C - Eglise   1
157 - Vacognes-Neuilly1472114210 49.095598   -0.539514  Eglise de Neuilly-Malherbe   1
158 - Vassy1472614410 48.853116   -0.673222  Eglise   2
159 - Vauville1473114800 0.000000   0.000000  nd   1
160 - Vendeuvre1473514170 48.987087   -0.078691  Château   3
161 - Versainville1473714700 48.916718   -0.179628  Eglise   1
162 - Verson1473814790 49.153541   -0.447164  C - Eglise   3
163 - Ver-sur-Mer1473914114 49.338333   -0.523101  C - 43 rue 8e Armée   2
164 - Vienne-en-Bessin1474414400 49.278506   -0.607753  Eglise   1
165 - Vieux-Fumé1474914270 49.057622   -0.116460  C - Eglise   1
166 - Vignats1475114700 48.854468   -0.031060  Eglise   1
167 - Villers-sur-Mer1475414640 49.325608   0.000000  Méridien   5
168 - Villons-les-Buissons1475814610 49.236455   -0.420907  C - Eglise   2
169 - Vire1476214500 48.838424   -0.889816  Porte   1